createdAt,value
2018-01-15T00:01:03.047Z,9.30
2018-01-15T00:03:31.205Z,10.20
2018-01-15T00:05:58.621Z,8.80
2018-01-15T00:08:26.131Z,8.27
2018-01-15T00:10:53.762Z,10.25
2018-01-15T00:13:21.210Z,10.27
2018-01-15T00:15:49.410Z,11.30
2018-01-15T00:18:16.989Z,9.30
2018-01-15T00:20:44.741Z,10.07
2018-01-15T00:23:12.389Z,8.85
2018-01-15T00:25:40.833Z,9.68
2018-01-15T00:28:08.237Z,9.85
2018-01-15T00:30:35.883Z,9.43
2018-01-15T00:33:03.314Z,8.63
2018-01-15T00:35:30.936Z,9.73
2018-01-15T00:37:58.561Z,10.55
2018-01-15T00:40:26.149Z,9.98
2018-01-15T00:42:53.618Z,10.07
2018-01-15T00:45:21.105Z,8.90
2018-01-15T00:47:48.866Z,9.18
2018-01-15T00:50:16.324Z,9.25
2018-01-15T00:52:43.932Z,10.27
2018-01-15T00:55:11.366Z,8.15
2018-01-15T00:57:39.769Z,9.57
2018-01-15T01:00:07.231Z,9.25
2018-01-15T01:02:34.813Z,10.55
2018-01-15T01:05:02.302Z,9.55
2018-01-15T01:07:29.764Z,9.77
2018-01-15T01:09:57.201Z,9.95
2018-01-15T01:12:24.636Z,8.93
2018-01-15T01:14:52.281Z,9.65
2018-01-15T01:17:19.768Z,10.45
2018-01-15T01:19:47.322Z,8.57
2018-01-15T01:22:14.954Z,9.80
2018-01-15T01:24:42.554Z,9.45
2018-01-15T01:27:10.305Z,9.68
2018-01-15T01:29:37.741Z,9.82
2018-01-15T01:32:05.234Z,8.52
2018-01-15T01:34:32.829Z,11.07
2018-01-15T01:37:00.710Z,9.82
2018-01-15T01:39:28.213Z,9.35
2018-01-15T01:41:55.981Z,9.27
2018-01-15T01:44:23.421Z,10.20
2018-01-15T01:46:50.898Z,10.48
2018-01-15T01:49:18.330Z,9.32
2018-01-15T01:51:45.772Z,8.45
2018-01-15T01:54:13.189Z,8.18
2018-01-15T01:56:40.722Z,8.50
2018-01-15T01:59:08.360Z,8.35
2018-01-15T02:01:35.898Z,9.75
2018-01-15T02:04:04.085Z,8.60
2018-01-15T02:06:32.109Z,10.43
2018-01-15T02:08:59.857Z,8.45
2018-01-15T02:11:27.317Z,10.63
2018-01-15T02:13:54.957Z,8.75
2018-01-15T02:16:22.387Z,9.10
2018-01-15T02:18:50.005Z,9.18
2018-01-15T02:21:17.460Z,9.13
2018-01-15T02:23:44.905Z,8.70
2018-01-15T02:26:12.371Z,9.90
2018-01-15T02:28:39.829Z,10.88
2018-01-15T02:31:07.291Z,9.85
2018-01-15T02:33:34.705Z,8.98
2018-01-15T02:36:02.142Z,9.68
2018-01-15T02:38:29.657Z,9.25
2018-01-15T02:40:57.081Z,9.13
2018-01-15T02:43:24.503Z,9.43
2018-01-15T02:45:52.397Z,9.90
2018-01-15T02:48:20.043Z,9.68
2018-01-15T02:50:47.497Z,8.65
2018-01-15T02:53:14.964Z,10.07
2018-01-15T02:55:42.488Z,9.30
2018-01-15T02:58:09.921Z,9.13
2018-01-15T03:00:37.416Z,9.82
2018-01-15T03:03:05.028Z,8.90
2018-01-15T03:05:32.534Z,8.65
2018-01-15T03:08:00.073Z,8.93
2018-01-15T03:10:27.525Z,9.48
2018-01-15T03:12:54.941Z,9.93
2018-01-15T03:15:22.378Z,11.30
2018-01-15T03:17:49.801Z,9.15
2018-01-15T03:20:17.227Z,10.40
2018-01-15T03:22:44.662Z,9.43
2018-01-15T03:25:12.281Z,8.85
2018-01-15T03:27:39.719Z,8.82
2018-01-15T03:30:07.169Z,8.65
2018-01-15T03:32:34.582Z,9.98
2018-01-15T03:35:02.034Z,9.98
2018-01-15T03:37:29.566Z,9.80
2018-01-15T03:39:57.206Z,8.82
2018-01-15T03:42:24.679Z,9.05
2018-01-15T03:44:52.241Z,9.30
2018-01-15T03:47:19.709Z,9.18
2018-01-15T03:49:47.133Z,9.48
2018-01-15T03:52:14.625Z,10.70
2018-01-15T03:54:42.278Z,9.23
2018-01-15T03:57:09.851Z,9.02
2018-01-15T03:59:37.309Z,9.95
2018-01-15T04:02:04.757Z,9.85
2018-01-15T04:04:32.526Z,8.50
2018-01-15T04:07:00.298Z,9.25
2018-01-15T04:09:27.763Z,10.35
2018-01-15T04:11:55.217Z,9.40
2018-01-15T04:14:23.060Z,9.55
2018-01-15T04:16:50.737Z,9.98
2018-01-15T04:19:18.174Z,10.02
2018-01-15T04:21:45.601Z,10.85
2018-01-15T04:24:13.785Z,8.65
2018-01-15T04:26:41.499Z,10.00
2018-01-15T04:29:08.926Z,10.57
2018-01-15T04:31:36.353Z,9.90
2018-01-15T04:34:03.777Z,9.52
2018-01-15T04:36:31.221Z,8.90
2018-01-15T04:38:58.682Z,9.88
2018-01-15T04:41:26.844Z,10.75
2018-01-15T04:43:54.282Z,8.75
2018-01-15T04:46:21.885Z,9.80
2018-01-15T04:48:49.425Z,8.90
2018-01-15T04:51:16.886Z,8.85
2018-01-15T04:53:44.441Z,9.43
2018-01-15T04:56:12.087Z,10.10
2018-01-15T04:58:39.670Z,11.55
2018-01-15T05:01:07.438Z,9.75
2018-01-15T05:03:34.985Z,9.65
2018-01-15T05:06:02.413Z,9.90
2018-01-15T05:08:30.018Z,9.40
2018-01-15T05:10:57.465Z,9.27
2018-01-15T05:13:24.968Z,8.98
2018-01-15T05:15:52.486Z,8.40
2018-01-15T05:18:20.130Z,9.65
2018-01-15T05:20:47.582Z,8.90
2018-01-15T05:23:15.065Z,9.63
2018-01-15T05:25:42.493Z,10.27
2018-01-15T05:28:10.131Z,9.20
2018-01-15T05:30:37.538Z,8.73
2018-01-15T05:33:04.969Z,10.43
2018-01-15T05:35:32.457Z,9.95
2018-01-15T05:38:00.089Z,10.50
2018-01-15T05:40:27.574Z,8.38
2018-01-15T05:42:55.005Z,9.65
2018-01-15T05:45:22.594Z,10.07
2018-01-15T05:47:50.356Z,9.65
2018-01-15T05:50:18.010Z,8.90
2018-01-15T05:52:45.574Z,10.77
2018-01-15T05:55:13.000Z,9.70
2018-01-15T05:57:40.421Z,9.93
2018-01-15T06:00:07.957Z,9.27
2018-01-15T06:02:35.591Z,9.15
2018-01-15T06:05:03.234Z,10.07
2018-01-15T06:07:30.829Z,10.52
2018-01-15T06:09:58.397Z,8.75
2018-01-15T06:12:25.829Z,9.70
2018-01-15T06:14:53.312Z,9.57
2018-01-15T06:17:20.689Z,8.63
2018-01-15T06:19:48.233Z,9.43
2018-01-15T06:22:15.996Z,8.95
2018-01-15T06:24:43.425Z,8.63
2018-01-15T06:27:10.865Z,9.45
2018-01-15T06:29:38.287Z,8.73
2018-01-15T06:32:05.725Z,10.82
2018-01-15T06:34:33.201Z,9.40
2018-01-15T06:37:00.688Z,9.45
2018-01-15T06:39:28.118Z,9.23
2018-01-15T06:41:55.669Z,9.80
2018-01-15T06:44:23.118Z,10.07
2018-01-15T06:46:50.581Z,9.85
2018-01-15T06:49:17.994Z,8.27
2018-01-15T06:51:45.475Z,10.43
2018-01-15T06:54:12.953Z,10.57
2018-01-15T06:56:40.405Z,9.15
2018-01-15T06:59:07.843Z,8.85
2018-01-15T07:01:35.274Z,9.80
2018-01-15T07:04:02.726Z,9.90
2018-01-15T07:06:30.164Z,8.80
2018-01-15T07:08:57.601Z,9.98
2018-01-15T07:11:25.054Z,10.50
2018-01-15T07:13:52.508Z,9.27
2018-01-15T07:16:19.946Z,9.27
2018-01-15T07:18:47.537Z,8.93
2018-01-15T07:21:14.961Z,9.30
2018-01-15T07:23:42.407Z,10.13
2018-01-15T07:26:09.834Z,10.00
2018-01-15T07:28:37.284Z,10.15
2018-01-15T07:31:04.823Z,11.02
2018-01-15T07:33:32.594Z,10.48
2018-01-15T07:36:00.015Z,8.90
2018-01-15T07:38:27.461Z,10.15
2018-01-15T07:40:54.964Z,8.60
2018-01-15T07:43:22.733Z,10.57
2018-01-15T07:45:50.492Z,11.63
2018-01-15T07:48:18.257Z,10.70
2018-01-15T07:50:46.005Z,10.32
2018-01-15T07:53:13.469Z,10.20
2018-01-15T07:55:40.936Z,10.45
2018-01-15T07:58:08.568Z,9.02
2018-01-15T08:00:36.061Z,10.70
2018-01-15T08:03:03.530Z,9.60
2018-01-15T08:05:31.068Z,10.05
2018-01-15T08:07:58.489Z,9.38
2018-01-15T08:10:25.919Z,9.30
2018-01-15T08:12:53.345Z,8.80
2018-01-15T08:15:20.903Z,11.18
2018-01-15T08:17:48.338Z,10.20
2018-01-15T08:20:15.797Z,9.00
2018-01-15T08:22:43.273Z,8.02
2018-01-15T08:25:10.737Z,9.55
2018-01-15T08:27:38.408Z,9.15
2018-01-15T08:30:05.870Z,10.07
2018-01-15T08:32:33.317Z,8.10
2018-01-15T08:35:00.875Z,9.07
2018-01-15T08:37:28.645Z,9.90
2018-01-15T08:39:56.190Z,8.38
2018-01-15T08:42:23.865Z,8.77
2018-01-15T08:44:51.321Z,9.93
2018-01-15T08:47:18.952Z,9.43
2018-01-15T08:49:46.429Z,9.00
2018-01-15T08:52:14.002Z,9.05
2018-01-15T08:54:41.767Z,9.25
2018-01-15T08:57:09.228Z,9.68
2018-01-15T08:59:36.666Z,11.38
2018-01-15T09:02:04.097Z,9.52
2018-01-15T09:04:31.602Z,9.40
2018-01-15T09:06:59.041Z,9.38
2018-01-15T09:09:26.470Z,10.60
2018-01-15T09:11:53.965Z,9.13
2018-01-15T09:14:21.414Z,9.07
2018-01-15T09:16:48.837Z,8.65
2018-01-15T09:19:16.340Z,8.10
2018-01-15T09:21:43.974Z,9.93
2018-01-15T09:24:11.565Z,9.27
2018-01-15T09:26:38.999Z,10.23
2018-01-15T09:29:06.485Z,9.10
2018-01-15T09:31:33.953Z,8.20
2018-01-15T09:34:01.398Z,9.70
2018-01-15T09:36:28.820Z,9.02
2018-01-15T09:38:56.313Z,8.75
2018-01-15T09:41:23.769Z,8.48
2018-01-15T09:43:51.528Z,8.88
2018-01-15T09:46:19.050Z,8.90
2018-01-15T09:48:46.664Z,7.80
2018-01-15T09:51:14.106Z,8.65
2018-01-15T09:53:41.627Z,8.05
2018-01-15T09:56:09.143Z,7.45
2018-01-15T09:58:36.576Z,10.05
2018-01-15T10:01:04.018Z,8.73
2018-01-15T10:03:31.505Z,8.07
2018-01-15T10:05:59.269Z,8.82
2018-01-15T10:08:26.903Z,7.87
2018-01-15T10:10:54.346Z,8.57
2018-01-15T10:13:22.741Z,9.00
2018-01-15T10:15:50.242Z,9.95
2018-01-15T10:18:17.667Z,9.00
2018-01-15T10:20:45.156Z,8.05
2018-01-15T10:23:12.586Z,8.57
2018-01-15T10:25:40.167Z,8.88
2018-01-15T10:28:07.607Z,10.30
2018-01-15T10:30:35.046Z,9.60
2018-01-15T10:33:02.528Z,8.18
2018-01-15T10:35:30.184Z,9.20
2018-01-15T10:37:57.657Z,8.18
2018-01-15T10:40:25.150Z,8.60
2018-01-15T10:42:53.594Z,9.10
2018-01-15T10:45:21.035Z,7.80
2018-01-15T10:47:48.462Z,7.90
2018-01-15T10:50:15.889Z,9.63
2018-01-15T10:52:43.325Z,7.15
2018-01-15T10:55:10.753Z,7.70
2018-01-15T10:57:39.160Z,8.23
2018-01-15T11:00:06.620Z,6.93
2018-01-15T11:02:34.046Z,6.68
2018-01-15T11:05:01.469Z,7.15
2018-01-15T11:07:29.005Z,7.90
2018-01-15T11:09:56.525Z,6.60
2018-01-15T11:12:23.962Z,7.28
2018-01-15T11:14:51.390Z,7.10
2018-01-15T11:17:18.885Z,7.75
2018-01-15T11:19:46.389Z,7.22
2018-01-15T11:22:13.822Z,6.70
2018-01-15T11:24:41.248Z,5.90
2018-01-15T11:27:08.753Z,8.02
2018-01-15T11:29:36.176Z,6.10
2018-01-15T11:32:03.617Z,7.72
2018-01-15T11:34:31.125Z,6.00
2018-01-15T11:36:58.569Z,6.28
2018-01-15T11:39:26.041Z,7.57
2018-01-15T11:41:53.697Z,6.72
2018-01-15T11:44:21.138Z,6.45
2018-01-15T11:46:48.640Z,6.68
2018-01-15T11:49:16.091Z,6.72
2018-01-15T11:51:43.642Z,6.62
2018-01-15T11:54:11.066Z,7.82
2018-01-15T11:56:38.556Z,5.15
2018-01-15T11:59:06.045Z,7.00
2018-01-15T12:01:33.782Z,7.37
2018-01-15T12:04:01.430Z,5.70
2018-01-15T12:06:29.005Z,7.72
2018-01-15T12:08:56.537Z,5.40
2018-01-15T12:11:24.134Z,6.87
2018-01-15T12:13:51.707Z,6.68
2018-01-15T12:16:19.138Z,7.05
2018-01-15T12:18:46.594Z,6.57
2018-01-15T12:21:14.025Z,6.00
2018-01-15T12:23:41.517Z,5.70
2018-01-15T12:26:09.277Z,7.28
2018-01-15T12:28:36.738Z,5.35
2018-01-15T12:31:04.194Z,7.40
2018-01-15T12:33:31.624Z,6.55
2018-01-15T12:35:59.058Z,6.00
2018-01-15T12:38:26.541Z,5.53
2018-01-15T12:40:54.845Z,5.20
2018-01-15T12:43:22.400Z,7.32
2018-01-15T12:45:50.043Z,7.40
2018-01-15T12:48:17.541Z,7.18
2018-01-15T12:50:44.985Z,6.18
2018-01-15T12:53:12.541Z,7.03
2018-01-15T12:55:40.178Z,6.37
2018-01-15T12:58:07.713Z,5.53
2018-01-15T13:00:35.138Z,7.10
2018-01-15T13:03:02.690Z,6.22
2018-01-15T13:05:42.126Z,6.28
2018-01-15T13:08:12.638Z,7.00
2018-01-15T13:10:40.111Z,6.10
2018-01-15T13:13:07.566Z,7.03
2018-01-15T13:15:35.200Z,6.20
2018-01-15T13:18:02.789Z,9.07
2018-01-15T13:20:30.441Z,6.20
2018-01-15T13:22:58.010Z,8.85
2018-01-15T13:25:25.785Z,8.88
2018-01-15T13:27:53.205Z,8.25
2018-01-15T13:30:20.654Z,8.18
2018-01-15T13:32:48.155Z,7.87
2018-01-15T13:35:15.616Z,6.70
2018-01-15T13:37:43.041Z,9.00
2018-01-15T13:40:10.489Z,7.43
2018-01-15T13:42:37.921Z,7.95
2018-01-15T13:45:05.352Z,8.38
2018-01-15T13:47:32.772Z,6.57
2018-01-15T13:50:00.224Z,7.62
2018-01-15T13:52:27.728Z,8.27
2018-01-15T13:54:55.161Z,7.32
2018-01-15T13:57:22.732Z,7.75
2018-01-15T13:59:50.494Z,7.97
2018-01-15T14:02:17.943Z,8.95
2018-01-15T14:04:45.409Z,6.93
2018-01-15T14:07:13.072Z,8.27
2018-01-15T14:09:40.529Z,6.30
2018-01-15T14:12:07.997Z,7.72
2018-01-15T14:14:35.542Z,6.82
2018-01-15T14:17:02.989Z,8.90
2018-01-15T14:19:30.408Z,6.53
2018-01-15T14:21:57.840Z,7.22
2018-01-15T14:24:25.262Z,6.32
2018-01-15T14:26:52.753Z,6.78
2018-01-15T14:29:20.299Z,6.57
2018-01-15T14:31:48.066Z,7.95
2018-01-15T14:34:15.712Z,6.10
2018-01-15T14:36:43.173Z,6.62
2018-01-15T14:39:10.762Z,6.50
2018-01-15T14:41:38.174Z,7.22
2018-01-15T14:44:05.618Z,6.95
2018-01-15T14:46:33.108Z,8.25
2018-01-15T14:49:00.573Z,7.18
2018-01-15T14:51:28.025Z,7.07
2018-01-15T14:53:55.665Z,6.47
2018-01-15T14:56:23.090Z,7.00
2018-01-15T14:58:50.598Z,6.87
2018-01-15T15:01:18.070Z,5.72
2018-01-15T15:03:45.573Z,8.23
2018-01-15T15:06:13.086Z,6.53
2018-01-15T15:08:40.734Z,5.22
2018-01-15T15:11:08.303Z,6.80
2018-01-15T15:13:35.770Z,5.47
2018-01-15T15:16:03.198Z,5.47
2018-01-15T15:18:30.681Z,4.50
2018-01-15T15:20:58.346Z,6.90
2018-01-15T15:23:25.788Z,5.95
2018-01-15T15:25:53.236Z,5.30
2018-01-15T15:28:20.817Z,5.30
2018-01-15T15:30:48.238Z,5.55
2018-01-15T15:33:15.677Z,6.18
2018-01-15T15:35:43.134Z,6.57
2018-01-15T15:38:10.566Z,5.07
2018-01-15T15:40:38.109Z,5.50
2018-01-15T15:43:05.549Z,5.25
2018-01-15T15:45:33.035Z,6.15
2018-01-15T15:48:00.481Z,5.82
2018-01-15T15:50:27.977Z,4.85
2018-01-15T15:52:55.589Z,5.82
2018-01-15T15:55:23.156Z,6.00
2018-01-15T15:57:50.614Z,5.20
2018-01-15T16:00:18.046Z,5.70
2018-01-15T16:02:45.466Z,4.65
2018-01-15T16:05:12.981Z,4.53
2018-01-15T16:07:40.402Z,5.30
2018-01-15T16:10:08.585Z,3.92
2018-01-15T16:12:36.189Z,4.15
2018-01-15T16:15:03.653Z,4.25
2018-01-15T16:17:31.068Z,4.07
2018-01-15T16:19:58.656Z,4.03
2018-01-15T16:22:31.961Z,4.22
2018-01-15T16:24:59.717Z,4.72
2018-01-15T16:27:27.362Z,4.57
2018-01-15T16:29:54.829Z,3.90
2018-01-15T16:32:22.244Z,3.62
2018-01-15T16:34:50.473Z,4.20
2018-01-15T16:37:18.241Z,3.95
2018-01-15T16:39:45.681Z,4.82
2018-01-15T16:42:13.096Z,3.78
2018-01-15T16:44:41.306Z,3.95
2018-01-15T16:47:08.989Z,3.80
2018-01-15T16:49:36.477Z,3.87
2018-01-15T16:52:03.901Z,4.62
2018-01-15T16:54:31.385Z,3.60
2018-01-15T16:56:58.820Z,4.00
2018-01-15T16:59:26.274Z,3.37
2018-01-15T17:01:53.693Z,4.05
2018-01-15T17:04:22.240Z,3.97
2018-01-15T17:06:49.749Z,3.33
2018-01-15T17:09:17.253Z,4.07
2018-01-15T17:11:44.673Z,3.20
2018-01-15T17:14:12.169Z,3.80
2018-01-15T17:16:39.721Z,4.05
2018-01-15T17:19:07.367Z,3.95
2018-01-15T17:21:34.812Z,3.40
2018-01-15T17:24:02.244Z,3.58
2018-01-15T17:26:30.470Z,3.17
2018-01-15T17:28:58.228Z,2.35
2018-01-15T17:31:25.688Z,2.83
2018-01-15T17:33:53.161Z,3.70
2018-01-15T17:36:20.792Z,3.53
2018-01-15T17:38:48.225Z,3.33
2018-01-15T17:41:16.473Z,3.03
2018-01-15T17:43:44.078Z,3.17
2018-01-15T17:46:11.669Z,3.28
2018-01-15T17:48:39.089Z,3.08
2018-01-15T17:51:06.585Z,3.47
2018-01-15T17:53:34.221Z,3.20
2018-01-15T17:56:01.637Z,3.03
2018-01-15T17:58:29.265Z,3.70
2018-01-15T18:00:56.927Z,2.83
2018-01-15T18:03:24.390Z,4.07
2018-01-15T18:05:51.825Z,2.78
2018-01-15T18:08:19.313Z,2.37
2018-01-15T18:10:46.861Z,3.08
2018-01-15T18:13:14.490Z,4.80
2018-01-15T18:15:41.939Z,3.22
2018-01-15T18:18:10.154Z,3.60
2018-01-15T18:20:37.925Z,3.00
2018-01-15T18:23:05.689Z,2.53
2018-01-15T18:25:33.454Z,2.78
2018-01-15T18:28:01.217Z,2.12
2018-01-15T18:30:28.764Z,3.25
2018-01-15T18:32:56.315Z,2.78
2018-01-15T18:35:23.753Z,2.17
2018-01-15T18:37:52.166Z,2.20
2018-01-15T18:40:19.730Z,2.70
2018-01-15T18:42:47.161Z,2.20
2018-01-15T18:45:14.600Z,2.50
2018-01-15T18:47:42.105Z,2.47
2018-01-15T18:50:09.565Z,1.95
2018-01-15T18:52:36.986Z,2.40
2018-01-15T18:55:04.418Z,2.55
2018-01-15T18:57:32.840Z,1.87
2018-01-15T19:00:00.321Z,2.25
2018-01-15T19:02:27.763Z,1.95
2018-01-15T19:04:55.184Z,2.70
2018-01-15T19:07:22.614Z,2.37
2018-01-15T19:09:50.054Z,1.65
2018-01-15T19:12:17.490Z,1.98
2018-01-15T19:14:45.069Z,1.42
2018-01-15T19:17:12.512Z,1.70
2018-01-15T19:19:39.929Z,1.73
2018-01-15T19:22:07.375Z,1.60
2018-01-15T19:24:34.901Z,1.50
2018-01-15T19:27:02.548Z,1.55
2018-01-15T19:29:30.021Z,1.27
2018-01-15T19:31:57.481Z,1.20
2018-01-15T19:34:40.736Z,1.05
2018-01-15T19:37:08.158Z,0.70
2018-01-15T19:39:35.593Z,1.10
2018-01-15T19:42:13.626Z,1.10
2018-01-15T19:44:46.757Z,0.90
2018-01-15T19:47:20.743Z,1.25
2018-01-15T19:49:54.121Z,0.70
2018-01-15T19:52:27.307Z,0.60
2018-01-15T19:55:00.918Z,1.10
2018-01-15T19:57:34.013Z,0.90
2018-01-15T20:00:07.269Z,0.85
2018-01-15T20:02:52.385Z,0.80
2018-01-15T20:05:25.432Z,0.85
2018-01-15T20:07:58.544Z,0.82
2018-01-15T20:10:31.843Z,1.00
2018-01-15T20:12:59.282Z,0.75
2018-01-15T20:15:26.716Z,0.80
2018-01-15T20:17:54.737Z,0.80
2018-01-15T20:20:22.156Z,0.70
2018-01-15T20:22:49.595Z,0.80
2018-01-15T20:25:17.013Z,0.70
2018-01-15T20:27:44.463Z,0.70
2018-01-15T20:30:11.881Z,0.90
2018-01-15T20:32:39.411Z,0.80
2018-01-15T20:35:06.949Z,8.90
2018-01-15T20:37:34.704Z,1.05
2018-01-15T20:40:02.131Z,0.60
2018-01-15T20:42:29.669Z,1.17
2018-01-15T20:44:57.081Z,1.00
2018-01-15T20:47:24.519Z,0.60
2018-01-15T20:49:51.946Z,1.00
2018-01-15T20:52:19.772Z,0.60
2018-01-15T20:54:47.197Z,0.90
2018-01-15T20:57:14.618Z,0.90
2018-01-15T20:59:42.944Z,0.70
2018-01-15T21:02:10.506Z,0.90
2018-01-15T21:04:37.957Z,0.90
2018-01-15T21:07:05.352Z,1.23
2018-01-15T21:09:32.800Z,0.95
2018-01-15T21:12:00.213Z,1.25
2018-01-15T21:14:27.658Z,1.10
2018-01-15T21:16:56.053Z,1.20
2018-01-15T21:19:23.504Z,1.15
2018-01-15T21:21:51.096Z,1.10
2018-01-15T21:24:18.754Z,1.80
2018-01-15T21:26:46.237Z,1.10
2018-01-15T21:29:13.778Z,1.20
2018-01-15T21:31:41.210Z,0.80
2018-01-15T21:34:08.653Z,1.85
2018-01-15T21:36:36.078Z,1.62
2018-01-15T21:39:03.517Z,1.65
2018-01-15T21:41:30.969Z,1.85
2018-01-15T21:43:58.495Z,2.25
2018-01-15T21:46:25.981Z,2.22
2018-01-15T21:48:53.441Z,3.17
2018-01-15T21:51:20.893Z,3.62
2018-01-15T21:53:48.329Z,3.40
2018-01-15T21:56:15.753Z,3.60
2018-01-15T21:58:43.268Z,3.85
2018-01-15T22:01:10.747Z,3.25
2018-01-15T22:03:38.298Z,3.10
2018-01-15T22:06:05.722Z,2.97
2018-01-15T22:08:33.313Z,4.55
2018-01-15T22:11:00.769Z,4.80
2018-01-15T22:13:28.221Z,4.72
2018-01-15T22:15:55.641Z,5.47
2018-01-15T22:18:23.858Z,6.72
2018-01-15T22:20:51.299Z,6.82
2018-01-15T22:23:18.769Z,7.03
2018-01-15T22:25:46.865Z,6.50
2018-01-15T22:28:14.475Z,6.20
2018-01-15T22:30:41.939Z,5.90
2018-01-15T22:33:09.410Z,5.97
2018-01-15T22:35:36.977Z,7.47
2018-01-15T22:38:04.397Z,6.43
2018-01-15T22:40:31.833Z,5.05
2018-01-15T22:42:59.249Z,4.68
2018-01-15T22:45:26.808Z,5.30
2018-01-15T22:47:54.237Z,4.87
2018-01-15T22:50:21.730Z,4.15
2018-01-15T22:52:49.412Z,4.55
2018-01-15T22:55:16.843Z,3.90
2018-01-15T22:57:44.413Z,4.00
2018-01-15T23:00:11.845Z,4.40
2018-01-15T23:02:39.325Z,4.15
2018-01-15T23:05:06.770Z,4.78
2018-01-15T23:07:34.231Z,4.15
2018-01-15T23:10:01.703Z,3.42
2018-01-15T23:12:29.353Z,4.00
2018-01-15T23:14:56.925Z,5.30
2018-01-15T23:17:24.441Z,3.80
2018-01-15T23:19:52.045Z,4.47
2018-01-15T23:22:19.473Z,5.37
2018-01-15T23:24:47.068Z,5.30
2018-01-15T23:27:14.490Z,4.82
2018-01-15T23:29:41.916Z,5.62
2018-01-15T23:32:09.432Z,5.05
2018-01-15T23:34:36.852Z,5.50
2018-01-15T23:37:04.288Z,4.75
2018-01-15T23:39:31.710Z,6.18
2018-01-15T23:41:59.185Z,4.62
2018-01-15T23:44:26.625Z,6.22
2018-01-15T23:46:54.077Z,5.50
2018-01-15T23:49:21.541Z,4.82
2018-01-15T23:51:48.984Z,4.70
2018-01-15T23:54:28.234Z,5.35
2018-01-15T23:56:55.880Z,5.65
2018-01-15T23:59:23.293Z,4.43
